Time;durP1;ratioP1;P1;durP2;ratioP2;P2;SDS_P1;SDS_P2;PMS_P1;PMS_P2;Temp;Humidity;BMP_temperature;BMP_pressure;BME280_temperature;BME280_humidity;BME280_pressure;Samples;Min_cycle;Max_cycle;Signal;HPM_P1;HPM_P2
2022/04/10 00:01:52;;;;;;;1.80;1.32;;;;;;;5.04;86.12;96708.72;1741098;82;20988;-79
2022/04/10 00:04:19;;;;;;;2.50;1.47;;;;;;;5.03;85.88;96699.13;1741270;82;20991;-78
2022/04/10 00:06:45;;;;;;;1.40;1.30;;;;;;;5.02;85.91;96700.00;1741250;82;21417;-78
2022/04/10 00:09:13;;;;;;;1.72;1.40;;;;;;;5.01;85.63;96694.35;1741129;82;21011;-78
2022/04/10 00:11:41;;;;;;;2.12;1.22;;;;;;;5.00;86.17;96688.27;1722536;82;21007;-79
2022/04/10 00:14:08;;;;;;;1.90;1.52;;;;;;;4.99;85.55;96693.55;1710065;84;21035;-78
2022/04/10 00:16:34;;;;;;;1.42;1.32;;;;;;;4.92;85.91;96699.42;1710249;84;21078;-78
2022/04/10 00:19:04;;;;;;;2.02;1.82;;;;;;;4.84;86.16;96705.33;1710240;84;20980;-78
2022/04/10 00:21:29;;;;;;;1.67;1.45;;;;;;;4.86;86.12;96702.22;1709757;84;21055;-78
2022/04/10 00:23:56;;;;;;;2.65;1.60;;;;;;;4.88;85.89;96699.09;1728085;82;21377;-78
2022/04/10 00:26:22;;;;;;;2.12;1.40;;;;;;;4.91;86.02;96710.83;1740890;82;20976;-78
2022/04/10 00:28:50;;;;;;;2.20;1.62;;;;;;;4.93;86.00;96706.83;1740937;82;20996;-78
2022/04/10 00:31:20;;;;;;;1.60;1.35;;;;;;;4.97;85.95;96699.27;1740770;82;21011;-78
2022/04/10 00:33:46;;;;;;;2.05;1.45;;;;;;;5.01;85.94;96705.73;1740577;80;21047;-78
2022/04/10 00:36:13;;;;;;;1.45;1.30;;;;;;;4.99;85.22;96704.05;1723173;82;21389;-78
2022/04/10 00:38:40;;;;;;;1.70;1.45;;;;;;;4.99;85.11;96713.24;1710163;84;21047;-78
2022/04/10 00:41:07;;;;;;;2.10;1.50;;;;;;;4.94;84.97;96709.41;1709904;84;21064;-78
2022/04/10 00:43:36;;;;;;;1.77;1.65;;;;;;;4.96;85.12;96715.94;1710116;84;21422;-78
2022/04/10 00:46:03;;;;;;;2.00;1.42;;;;;;;4.96;85.07;96709.37;1710063;83;21020;-78
2022/04/10 00:48:29;;;;;;;1.80;1.50;;;;;;;4.93;84.93;96702.89;1707485;82;21024;-78
2022/04/10 00:53:44;;;;;;;1.87;1.67;;;;;;;4.85;84.38;96692.16;1694904;85;21446;-78
2022/04/10 00:56:11;;;;;;;1.85;1.62;;;;;;;4.85;84.90;96694.79;1694604;85;21509;-78
2022/04/10 00:58:39;;;;;;;1.90;1.70;;;;;;;4.74;84.13;96697.70;1694787;85;21024;-78
2022/04/10 01:01:05;;;;;;;2.20;1.80;;;;;;;4.77;84.23;96695.44;1719751;83;21039;-78
2022/04/10 01:03:32;;;;;;;2.15;1.80;;;;;;;4.73;84.31;96692.05;1724862;83;21411;-78
2022/04/10 01:05:59;;;;;;;2.67;1.90;;;;;;;4.70;84.20;96684.71;1725228;83;21003;-78
2022/04/10 01:08:26;;;;;;;3.12;1.82;;;;;;;4.67;83.96;96696.59;1712985;83;21037;-78
2022/04/10 01:10:53;;;;;;;3.25;2.50;;;;;;;4.56;84.33;96697.75;1694790;85;21017;-78
2022/04/10 01:13:21;;;;;;;2.67;1.98;;;;;;;4.53;84.32;96687.79;1695104;85;21027;-78
2022/04/10 01:15:48;;;;;;;2.02;1.80;;;;;;;4.52;84.25;96683.45;1662502;85;21073;-78
2022/04/10 01:18:15;;;;;;;2.25;1.80;;;;;;;4.43;84.52;96679.28;1704211;83;21023;-78
2022/04/10 01:20:43;;;;;;;2.70;1.90;;;;;;;4.32;85.02;96675.66;1725321;83;21020;-78
2022/04/10 01:23:10;;;;;;;2.72;2.27;;;;;;;4.30;84.74;96666.95;1725275;83;21059;-78
2022/04/10 01:25:38;;;;;;;2.92;2.00;;;;;;;4.22;85.33;96671.95;1725238;82;21386;-78
2022/04/10 01:28:12;;;;;;;2.22;2.02;;;;;;;4.22;84.76;96668.45;1725324;83;21392;-78
2022/04/10 01:30:40;;;;;;;3.67;2.17;;;;;;;4.18;85.40;96669.43;1707797;83;21068;-78
2022/04/10 01:33:06;;;;;;;2.02;1.75;;;;;;;4.16;85.78;96670.77;1694754;85;21090;-78
2022/04/10 01:35:34;;;;;;;2.00;1.80;;;;;;;4.16;85.58;96669.94;1694955;85;20993;-78
2022/04/10 01:38:02;;;;;;;3.17;2.22;;;;;;;4.17;85.49;96669.03;1694704;85;21057;-78
2022/04/10 01:40:31;;;;;;;3.02;2.05;;;;;;;4.21;85.75;96673.30;1693660;85;21040;-78
2022/04/10 01:42:58;;;;;;;2.83;1.98;;;;;;;4.26;85.49;96672.73;1720224;83;21020;-78
2022/04/10 01:45:26;;;;;;;2.72;1.98;;;;;;;4.29;85.82;96667.41;1725081;82;21005;-78
2022/04/10 01:47:53;;;;;;;2.67;1.95;;;;;;;4.33;85.51;96674.27;1725155;83;21020;-78
2022/04/10 01:50:22;;;;;;;2.50;1.62;;;;;;;4.34;85.21;96666.84;1725213;82;21039;-78
2022/04/10 01:52:48;;;;;;;2.20;1.60;;;;;;;4.39;85.35;96667.18;1725075;83;21083;-78
2022/04/10 01:55:15;;;;;;;2.02;1.60;;;;;;;4.44;85.16;96667.92;1700300;82;21482;-78
2022/04/10 01:57:43;;;;;;;2.12;1.67;;;;;;;4.50;85.27;96666.44;1694910;85;21059;-78
2022/04/10 02:00:13;;;;;;;1.90;1.70;;;;;;;4.54;84.54;96670.70;1694964;83;21032;-78
2022/04/10 02:02:39;;;;;;;2.33;1.77;;;;;;;4.56;84.58;96678.06;1694993;85;21068;-78
2022/04/10 02:05:07;;;;;;;2.33;1.50;;;;;;;4.59;84.28;96667.50;1696032;83;21027;-78
2022/04/10 02:07:34;;;;;;;2.22;1.70;;;;;;;4.60;84.19;96669.22;1725312;83;20980;-78
2022/04/10 02:10:01;;;;;;;2.25;1.75;;;;;;;4.55;83.70;96667.17;1725393;83;21003;-78
2022/04/10 02:12:29;;;;;;;2.58;1.80;;;;;;;4.52;83.45;96661.15;1725128;82;21008;-78
2022/04/10 02:14:56;;;;;;;2.00;1.72;;;;;;;4.47;83.39;96657.32;1720484;82;21131;-78
2022/04/10 02:17:22;;;;;;;2.42;1.60;;;;;;;4.43;83.70;96650.42;1724539;83;20968;-78
2022/04/10 02:19:49;;;;;;;1.92;1.60;;;;;;;4.43;83.70;96653.92;1725515;83;21045;-78
2022/04/10 02:22:15;;;;;;;2.30;1.72;;;;;;;4.42;83.60;96659.20;1725409;83;21067;-78
2022/04/10 02:24:42;;;;;;;1.65;1.50;;;;;;;4.40;83.62;96654.47;1725469;82;21023;-78
2022/04/10 02:27:09;;;;;;;2.90;1.70;;;;;;;4.34;83.88;96663.34;1725311;83;20996;-78
2022/04/10 02:29:36;;;;;;;2.27;1.75;;;;;;;4.33;83.77;96663.78;1721749;83;21055;-78
2022/04/10 02:32:03;;;;;;;2.45;2.08;;;;;;;4.31;83.96;96657.73;1694877;85;21028;-78
2022/04/10 02:34:30;;;;;;;2.60;1.80;;;;;;;4.29;84.28;96660.86;1694827;85;20979;-78
2022/04/10 02:36:57;;;;;;;2.45;2.00;;;;;;;4.24;84.67;96656.19;1695216;85;21024;-78
2022/04/10 02:39:23;;;;;;;2.35;1.90;;;;;;;4.22;84.99;96655.34;1694964;85;21413;-78
2022/04/10 02:41:50;;;;;;;4.22;2.35;;;;;;;4.17;85.92;96656.78;1700385;83;21060;-78
2022/04/10 02:44:17;;;;;;;3.47;2.40;;;;;;;4.13;85.42;96654.27;1724976;83;21082;-78
2022/04/10 02:46:44;;;;;;;3.00;2.33;;;;;;;4.11;84.80;96658.23;1725438;82;20980;-78
2022/04/10 02:49:10;;;;;;;3.50;2.83;;;;;;;4.11;84.95;96658.70;1725172;81;21056;-78
2022/04/10 02:51:37;;;;;;;3.22;2.92;;;;;;;4.09;85.71;96657.42;1725276;83;21024;-78
2022/04/10 02:54:04;;;;;;;3.37;2.90;;;;;;;4.04;85.80;96656.67;1721032;83;21460;-78
2022/04/10 02:56:31;;;;;;;3.90;3.00;;;;;;;3.96;86.52;96656.41;1694977;85;21040;-78
2022/04/10 02:58:57;;;;;;;3.45;2.80;;;;;;;3.92;86.21;96660.46;1695012;85;21024;-78
2022/04/10 03:01:24;;;;;;;4.80;3.08;;;;;;;3.90;85.73;96657.88;1694999;85;21540;-78
2022/04/10 03:03:51;;;;;;;4.15;2.92;;;;;;;3.88;85.98;96658.81;1694787;85;21025;-79
2022/04/10 03:06:18;;;;;;;5.20;3.25;;;;;;;3.86;86.40;96653.60;1703436;83;21008;-79
2022/04/10 03:08:45;;;;;;;6.08;3.40;;;;;;;3.85;86.07;96661.06;1724958;83;21043;-78
2022/04/10 03:11:12;;;;;;;3.50;3.00;;;;;;;3.86;86.24;96658.00;1725234;82;21020;-79
2022/04/10 03:13:39;;;;;;;4.15;3.30;;;;;;;3.82;86.33;96659.38;1725289;82;21091;-78
2022/04/10 03:16:06;;;;;;;4.08;3.55;;;;;;;3.81;86.28;96660.28;1725203;83;20999;-77
2022/04/10 03:18:33;;;;;;;5.12;3.72;;;;;;;3.72;85.88;96656.56;1716613;83;21489;-78
2022/04/10 03:21:00;;;;;;;6.45;3.62;;;;;;;3.68;85.88;96657.09;1694892;85;21004;-78
2022/04/10 03:23:27;;;;;;;4.92;3.92;;;;;;;3.65;85.84;96665.02;1694817;85;21020;-78
2022/04/10 03:25:53;;;;;;;7.87;4.37;;;;;;;3.60;86.16;96668.19;1694827;85;20965;-78
2022/04/10 03:28:20;;;;;;;5.40;3.92;;;;;;;3.54;86.00;96661.33;1721292;83;21056;-78
2022/04/10 03:30:47;;;;;;;5.92;4.40;;;;;;;3.41;86.71;96671.22;1725156;82;21719;-77
2022/04/10 03:33:14;;;;;;;6.37;4.60;;;;;;;3.34;86.90;96675.33;1725242;82;20985;-78
2022/04/10 03:35:41;;;;;;;6.72;4.75;;;;;;;3.30;86.09;96664.94;1725270;83;21043;-78
2022/04/10 03:38:08;;;;;;;6.40;4.65;;;;;;;3.30;86.37;96667.98;1701683;82;21414;-78
2022/04/10 03:40:35;;;;;;;6.10;4.45;;;;;;;3.28;86.78;96665.41;1694966;85;20958;-78
2022/04/10 03:43:02;;;;;;;6.78;5.12;;;;;;;3.25;86.67;96662.00;1694865;85;21072;-78
2022/04/10 03:45:29;;;;;;;7.05;5.10;;;;;;;3.27;87.02;96667.61;1694808;85;21406;-78
2022/04/10 03:47:56;;;;;;;6.60;5.62;;;;;;;3.19;86.34;96664.29;1694879;85;21052;-78
2022/04/10 03:50:26;;;;;;;6.25;5.00;;;;;;;3.15;86.96;96669.17;1723127;81;21071;-78
2022/04/10 03:52:53;;;;;;;8.60;5.47;;;;;;;3.06;87.51;96679.86;1725115;83;21059;-78
2022/04/10 03:55:19;;;;;;;8.18;5.37;;;;;;;2.93;87.89;96683.16;1725220;83;21016;-78
2022/04/10 03:57:46;;;;;;;7.65;5.28;;;;;;;2.97;87.23;96688.31;1725443;82;21004;-78
2022/04/10 04:00:13;;;;;;;6.12;4.65;;;;;;;2.95;87.83;96691.39;1725018;83;21012;-78
2022/04/10 04:02:46;;;;;;;7.50;5.37;;;;;;;2.86;87.74;96692.44;1695726;85;21023;-78
2022/04/10 04:05:14;;;;;;;8.88;6.20;;;;;;;2.82;87.89;96702.55;1695580;85;21047;-77
2022/04/10 04:07:41;;;;;;;8.15;5.30;;;;;;;2.82;88.30;96711.70;1696225;85;21043;-78
2022/04/10 04:10:10;;;;;;;7.70;5.67;;;;;;;2.77;88.07;96709.19;1696336;84;21032;-78
2022/04/10 04:12:38;;;;;;;6.97;5.70;;;;;;;2.76;88.33;96720.98;1700314;83;21513;-77
2022/04/10 04:15:07;;;;;;;9.73;5.55;;;;;;;2.74;88.37;96725.41;1725146;83;21012;-78
2022/04/10 04:17:34;;;;;;;8.08;5.85;;;;;;;2.76;88.28;96724.48;1725173;83;21014;-78
2022/04/10 04:20:03;;;;;;;9.90;6.62;;;;;;;2.73;88.41;96731.07;1725224;82;21321;-78
2022/04/10 04:22:30;;;;;;;7.47;4.72;;;;;;;2.79;88.45;96737.08;1701181;83;21485;-77
2022/04/10 04:24:57;;;;;;;7.65;5.42;;;;;;;2.70;88.03;96744.20;1695000;85;20996;-78
2022/04/10 04:27:24;;;;;;;6.90;5.53;;;;;;;2.62;88.00;96750.03;1694751;85;21685;-79
2022/04/10 04:29:51;;;;;;;9.83;6.28;;;;;;;2.56;88.84;96753.61;1694929;85;21325;-79
2022/04/10 04:32:18;;;;;;;5.58;4.47;;;;;;;2.47;89.32;96765.11;1715566;83;21004;-78
2022/04/10 04:34:47;;;;;;;8.40;6.28;;;;;;;2.35;89.73;96763.98;1724687;83;21755;-79
2022/04/10 04:37:14;;;;;;;8.18;5.95;;;;;;;2.29;89.27;96768.02;1697095;83;21012;-79
2022/04/10 04:39:42;;;;;;;32.90;18.32;;;;;;;2.20;90.45;96775.58;1725355;82;21016;-78
2022/04/10 04:42:09;;;;;;;6.62;5.30;;;;;;;2.14;90.26;96772.60;1725253;83;21073;-79
2022/04/10 04:44:36;;;;;;;7.58;5.67;;;;;;;2.10;90.51;96780.95;1677072;84;21027;-79
2022/04/10 04:47:03;;;;;;;6.42;4.67;;;;;;;2.02;91.13;96786.72;1694971;85;21008;-78
2022/04/10 04:49:30;;;;;;;7.12;5.30;;;;;;;1.89;90.97;96796.50;1697976;84;20984;-78
2022/04/10 04:51:57;;;;;;;7.25;5.95;;;;;;;1.79;92.42;96800.13;1710118;84;21119;-79
2022/04/10 04:54:24;;;;;;;6.37;4.97;;;;;;;1.69;92.17;96796.76;1710175;84;21339;-79
2022/04/10 04:56:50;;;;;;;7.90;5.45;;;;;;;1.62;93.03;96803.81;1702115;82;21012;-79
2022/04/10 04:59:18;;;;;;;6.97;5.55;;;;;;;1.59;92.95;96799.95;1741490;82;21457;-79
2022/04/10 05:01:45;;;;;;;6.40;5.25;;;;;;;1.57;93.04;96796.47;1741139;82;21014;-79
2022/04/10 05:04:13;;;;;;;6.97;5.58;;;;;;;1.54;92.76;96803.91;1741209;82;21011;-79
2022/04/10 05:06:40;;;;;;;7.22;5.25;;;;;;;1.52;93.07;96806.12;1713965;82;21456;-79
2022/04/10 05:09:07;;;;;;;6.95;5.65;;;;;;;1.48;93.52;96805.73;1714968;82;21015;-80
2022/04/10 05:11:34;;;;;;;7.05;5.05;;;;;;;1.47;93.82;96802.70;1709878;84;21106;-79
2022/04/10 05:14:01;;;;;;;8.13;5.30;;;;;;;1.43;94.00;96805.38;1709017;84;21412;-79
2022/04/10 05:16:28;;;;;;;7.00;5.53;;;;;;;1.42;93.74;96816.67;1709044;84;21516;-79
2022/04/10 05:18:56;;;;;;;6.87;4.95;;;;;;;1.41;93.96;96820.63;1709324;84;21055;-80
2022/04/10 05:21:24;;;;;;;9.10;5.65;;;;;;;1.42;94.57;96821.89;1734555;82;21007;-79
2022/04/10 05:23:51;;;;;;;7.20;5.10;;;;;;;1.43;94.82;96824.95;1740057;82;21504;-79
2022/04/10 05:26:19;;;;;;;6.87;5.20;;;;;;;1.41;94.15;96834.53;1740304;82;21428;-79
2022/04/10 05:28:48;;;;;;;6.35;5.25;;;;;;;1.37;95.31;96839.83;1726782;82;21525;-79
2022/04/10 05:31:14;;;;;;;7.87;5.22;;;;;;;1.31;95.18;96844.66;1709297;84;21019;-79
2022/04/10 05:33:43;;;;;;;7.72;5.08;;;;;;;1.25;95.24;96848.66;1709291;83;21019;-80
2022/04/10 05:36:10;;;;;;;7.22;5.30;;;;;;;1.19;95.72;96844.36;1709506;84;20979;-79
2022/04/10 05:38:38;;;;;;;7.40;5.03;;;;;;;1.17;95.45;96853.50;1709690;82;21055;-79
2022/04/10 05:41:05;;;;;;;6.53;5.17;;;;;;;1.14;96.64;96845.72;1709359;84;21109;-79
2022/04/10 05:43:33;;;;;;;6.90;4.97;;;;;;;1.12;96.54;96842.70;1708333;84;21103;-79
2022/04/10 05:46:01;;;;;;;5.53;4.45;;;;;;;1.10;97.17;96850.55;1709480;84;21078;-79
2022/04/10 05:48:28;;;;;;;7.40;5.12;;;;;;;1.13;96.54;96848.34;1710378;84;21016;-79
2022/04/10 05:50:55;;;;;;;6.75;5.30;;;;;;;1.13;96.56;96854.41;1715164;83;21080;-80
2022/04/10 05:53:24;;;;;;;6.70;5.15;;;;;;;1.15;96.33;96854.39;1724739;83;21464;-79
2022/04/10 05:55:51;;;;;;;5.00;4.37;;;;;;;1.15;95.82;96863.10;1724198;83;21574;-79
2022/04/10 05:58:20;;;;;;;6.20;4.35;;;;;;;1.16;96.16;96866.13;1723562;83;21521;-79
2022/04/10 06:00:46;;;;;;;7.22;4.35;;;;;;;1.18;96.90;96870.03;1724526;83;21533;-79
2022/04/10 06:03:15;;;;;;;7.20;4.75;;;;;;;1.19;96.82;96866.53;1708500;81;21048;-79
2022/04/10 06:05:43;;;;;;;14.23;9.00;;;;;;;1.23;96.62;96865.62;1694017;83;21511;-79
2022/04/10 06:08:12;;;;;;;8.03;5.05;;;;;;;1.27;96.42;96870.38;1692068;85;21521;-79
2022/04/10 06:10:39;;;;;;;8.38;4.65;;;;;;;1.29;96.58;96873.84;1693786;85;21339;-79
2022/04/10 06:13:10;;;;;;;5.97;4.90;;;;;;;1.29;96.32;96873.84;1693643;85;21104;-79
2022/04/10 06:15:39;;;;;;;4.97;4.05;;;;;;;1.32;96.58;96871.18;1713571;83;21039;-79
2022/04/10 06:18:07;;;;;;;5.78;5.00;;;;;;;1.30;96.66;96879.48;1724173;83;21036;-79
2022/04/10 06:20:36;;;;;;;5.97;4.95;;;;;;;1.30;95.53;96873.80;1695916;83;21047;-81
2022/04/10 06:23:04;;;;;;;7.08;4.83;;;;;;;1.26;96.49;96886.48;1716830;83;21469;-80
2022/04/10 06:25:34;;;;;;;7.05;4.90;;;;;;;1.25;95.63;96883.89;1694355;83;21047;-80
2022/04/10 06:28:01;;;;;;;6.70;5.20;;;;;;;1.27;96.53;96897.78;1694114;85;21087;-79
2022/04/10 06:30:29;;;;;;;5.75;4.53;;;;;;;1.30;95.50;96896.45;1693501;85;21056;-79
2022/04/10 06:32:57;;;;;;;7.72;5.12;;;;;;;1.28;95.97;96896.46;1699207;83;21075;-80
2022/04/10 06:35:24;;;;;;;6.85;4.35;;;;;;;1.31;96.10;96899.05;1724174;83;21477;-80
2022/04/10 06:37:52;;;;;;;6.40;4.42;;;;;;;1.36;96.82;96911.20;1724260;83;21037;-80
2022/04/10 06:40:19;;;;;;;5.15;4.30;;;;;;;1.34;95.63;96914.25;1723700;83;21115;-80
2022/04/10 06:42:47;;;;;;;5.75;4.12;;;;;;;1.36;95.34;96913.81;1724388;83;21496;-80
2022/04/10 06:45:25;;;;;;;5.80;4.37;;;;;;;1.42;95.68;96918.95;1716519;82;21035;-80
2022/04/10 06:47:54;;;;;;;6.80;4.15;;;;;;;1.43;95.17;96911.11;1694195;85;21012;-80
2022/04/10 06:50:22;;;;;;;4.53;3.35;;;;;;;1.41;95.31;96914.63;1694342;84;21468;-80
2022/04/10 06:52:49;;;;;;;5.87;3.90;;;;;;;1.37;95.33;96914.23;1694565;85;21012;-80
2022/04/10 06:55:17;;;;;;;5.72;3.72;;;;;;;1.38;94.93;96927.27;1694430;85;21410;-80
2022/04/10 06:57:44;;;;;;;4.83;3.58;;;;;;;1.37;94.97;96925.52;1705937;83;20988;-80
2022/04/10 07:00:13;;;;;;;4.25;3.00;;;;;;;1.27;95.46;96920.84;1724963;83;21004;-80
2022/04/10 07:02:41;;;;;;;5.05;3.40;;;;;;;1.28;94.93;96917.77;1696336;83;21034;-80
2022/04/10 07:05:09;;;;;;;4.72;3.25;;;;;;;1.28;95.17;96917.34;1725087;83;21043;-80
2022/04/10 07:07:37;;;;;;;4.83;3.67;;;;;;;1.29;95.12;96919.53;1724996;82;21016;-79
2022/04/10 07:10:05;;;;;;;5.05;3.60;;;;;;;1.28;95.60;96932.13;1708936;83;21023;-80
2022/04/10 07:12:31;;;;;;;4.70;3.67;;;;;;;1.23;94.90;96938.71;1694616;85;21048;-80
2022/04/10 07:15:03;;;;;;;4.33;3.42;;;;;;;1.22;94.96;96936.11;1694324;85;20996;-82
2022/04/10 07:17:30;;;;;;;4.00;3.10;;;;;;;1.20;94.82;96941.80;1694628;85;21028;-81
2022/04/10 07:19:58;;;;;;;3.60;3.15;;;;;;;1.13;95.65;96943.59;1694621;84;21071;-80
2022/04/10 07:25:11;;;;;;;4.53;3.52;;;;;;;1.11;94.71;96938.81;1725177;83;20987;-80
2022/04/10 07:27:38;;;;;;;4.55;3.20;;;;;;;1.17;95.16;96941.39;1725070;83;21016;-80
2022/04/10 07:30:12;;;;;;;;;;;;;;;1.22;94.98;96946.55;1709307;83;21514;-81
2022/04/10 07:32:40;;;;;;;4.37;3.00;;;;;;;1.26;94.73;96949.56;1722648;83;20338;-80
2022/04/10 07:35:09;;;;;;;3.30;2.80;;;;;;;1.27;95.05;96961.30;1693490;83;21521;-80
2022/04/10 07:37:38;;;;;;;4.15;3.05;;;;;;;1.24;95.04;96963.08;1693936;85;21160;-80
2022/04/10 07:40:07;;;;;;;4.03;3.25;;;;;;;1.20;95.03;96962.22;1694741;85;21047;-81
2022/04/10 07:42:45;;;;;;;5.12;3.90;;;;;;;1.24;95.03;96973.52;1662909;83;21040;-79
2022/04/10 07:48:12;;;;;;;4.08;3.20;;;;;;;1.28;95.06;96965.63;1724635;82;20101;-80
2022/04/10 07:50:39;;;;;;;3.75;3.08;;;;;;;1.38;94.98;96974.27;1724748;82;21052;-79
2022/04/10 07:53:07;;;;;;;4.37;2.80;;;;;;;1.46;94.65;96985.94;1724927;83;21040;-80
2022/04/10 07:55:35;;;;;;;4.12;3.30;;;;;;;1.50;95.04;96991.53;1723703;83;21028;-80
2022/04/10 07:58:04;;;;;;;3.83;3.15;;;;;;;1.55;94.73;96991.50;1724024;83;21002;-80
2022/04/10 08:00:32;;;;;;;3.42;2.47;;;;;;;1.64;94.96;96990.53;1724614;83;21437;-80
2022/04/10 08:03:01;;;;;;;3.65;2.37;;;;;;;1.74;94.84;96988.71;1725089;83;20976;-80
2022/04/10 08:05:46;;;;;;;3.77;2.10;;;;;;;1.84;94.87;96984.66;1724844;83;21040;-80
2022/04/10 08:08:18;;;;;;;3.70;2.80;;;;;;;1.97;94.78;96989.33;1706911;82;21496;-80
2022/04/10 08:10:44;;;;;;;3.58;2.00;;;;;;;2.08;94.79;96992.25;1694042;83;21059;-81
2022/04/10 08:13:11;;;;;;;3.17;2.30;;;;;;;2.10;94.22;96995.70;1694466;85;21028;-80
2022/04/10 08:15:38;;;;;;;3.25;2.65;;;;;;;2.14;94.67;96996.52;1693959;85;21032;-80
2022/04/10 08:18:04;;;;;;;2.98;2.27;;;;;;;2.21;94.58;97003.42;1694318;85;20981;-81
2022/04/10 08:20:31;;;;;;;3.50;2.72;;;;;;;2.14;93.91;96996.09;1713153;83;21040;-80
2022/04/10 08:22:59;;;;;;;3.52;3.05;;;;;;;2.19;94.39;97002.12;1724684;83;21008;-80
2022/04/10 08:25:26;;;;;;;3.17;2.72;;;;;;;2.25;94.50;97002.50;1724494;83;21000;-80
2022/04/10 08:27:53;;;;;;;4.60;2.70;;;;;;;2.27;93.88;97004.64;1718027;83;21430;-80
2022/04/10 08:30:20;;;;;;;4.30;2.90;;;;;;;2.24;93.75;97009.90;1694546;85;21020;-80
2022/04/10 08:32:47;;;;;;;4.20;2.75;;;;;;;2.28;93.70;97005.06;1694467;85;21095;-80
2022/04/10 08:35:15;;;;;;;4.40;3.17;;;;;;;2.32;93.83;97008.53;1694162;85;20996;-80
2022/04/10 08:37:42;;;;;;;2.65;2.33;;;;;;;2.41;93.77;97004.92;1696200;83;21032;-80
2022/04/10 08:40:11;;;;;;;4.65;2.67;;;;;;;2.45;93.95;97011.39;1694211;85;20992;-80
2022/04/10 08:42:38;;;;;;;2.72;2.20;;;;;;;2.50;94.34;97016.11;1694445;85;21028;-80
2022/04/10 08:45:08;;;;;;;2.05;1.60;;;;;;;2.53;93.99;97027.44;1694362;85;21104;-80
2022/04/10 08:47:38;;;;;;;4.78;3.60;;;;;;;2.45;92.75;97037.54;1717546;83;20988;-80
2022/04/10 08:50:06;;;;;;;4.12;2.77;;;;;;;2.40;92.58;97036.73;1724200;82;21544;-80
2022/04/10 08:52:34;;;;;;;7.08;4.35;;;;;;;2.43;92.94;97039.32;1724791;81;21473;-79
2022/04/10 08:55:02;;;;;;;2.15;1.70;;;;;;;2.53;94.02;97047.05;1724533;83;21513;-79
2022/04/10 08:57:29;;;;;;;3.25;1.70;;;;;;;2.50;92.68;97055.34;1703099;82;21000;-79
2022/04/10 08:59:58;;;;;;;2.35;1.80;;;;;;;2.59;93.90;97056.12;1722232;83;21489;-79
2022/04/10 09:02:25;;;;;;;2.17;1.30;;;;;;;2.68;93.27;97049.47;1724846;83;21529;-79
2022/04/10 09:04:51;;;;;;;1.22;1.10;;;;;;;2.69;92.29;97064.27;1724910;83;21075;-79
2022/04/10 09:07:18;;;;;;;1.32;1.10;;;;;;;2.71;92.75;97053.79;1724619;83;20988;-79
2022/04/10 09:09:57;;;;;;;1.62;1.10;;;;;;;2.79;93.23;97064.16;1722652;83;20981;-79
2022/04/10 09:12:24;;;;;;;1.42;1.05;;;;;;;2.83;93.62;97070.62;1716421;83;21056;-79
2022/04/10 09:14:53;;;;;;;1.52;1.00;;;;;;;2.84;92.94;97072.80;1694217;85;21075;-78
2022/04/10 09:17:29;;;;;;;1.20;0.90;;;;;;;2.91;93.27;97066.61;1667319;85;21004;-78
2022/04/10 09:19:54;;;;;;;0.95;0.80;;;;;;;2.89;93.01;97067.06;1696201;83;21060;-80
2022/04/10 09:22:38;;;;;;;1.25;0.90;;;;;;;2.82;92.23;97067.59;1720294;82;21008;-79
2022/04/10 09:25:14;;;;;;;1.70;1.20;;;;;;;2.77;92.47;97071.59;1724506;83;21541;-79
2022/04/10 09:27:49;;;;;;;1.30;1.00;;;;;;;2.84;92.68;97073.69;1724347;83;21040;-79
2022/04/10 09:30:19;;;;;;;1.02;0.93;;;;;;;2.90;93.08;97076.20;1723948;83;21040;-79
2022/04/10 09:32:51;;;;;;;1.90;1.57;;;;;;;2.95;92.36;97083.14;1710682;83;21031;-79
2022/04/10 09:35:20;;;;;;;4.55;1.35;;;;;;;2.94;92.74;97074.41;1693926;85;21441;-79
2022/04/10 09:37:51;;;;;;;2.17;1.10;;;;;;;2.97;92.78;97080.04;1694379;85;21465;-79
2022/04/10 09:40:36;;;;;;;1.70;1.32;;;;;;;3.00;92.99;97093.94;1693661;85;20997;-79
2022/04/10 09:43:06;;;;;;;1.77;1.20;;;;;;;3.07;92.74;97080.33;1694105;84;21504;-79
2022/04/10 09:45:43;;;;;;;2.20;1.30;;;;;;;3.14;93.19;97083.30;1695083;83;20980;-78
2022/04/10 09:48:31;;;;;;;1.57;1.10;;;;;;;3.21;92.87;97089.31;1694388;85;21497;-78
2022/04/10 09:51:01;;;;;;;1.70;1.00;;;;;;;3.28;93.17;97100.10;1693945;84;21433;-78
2022/04/10 09:53:30;;;;;;;1.50;1.10;;;;;;;3.25;92.29;97098.86;1696543;83;20977;-78
2022/04/10 09:56:02;;;;;;;1.92;1.17;;;;;;;3.21;92.64;97102.41;1694120;85;21059;-79
2022/04/10 09:58:30;;;;;;;1.40;1.10;;;;;;;3.28;93.03;97094.86;1694339;85;21084;-79
2022/04/10 10:00:59;;;;;;;2.35;1.30;;;;;;;3.27;92.98;97102.73;1694194;85;21532;-79
2022/04/10 10:03:31;;;;;;;1.27;0.90;;;;;;;3.26;92.67;97096.66;1694896;83;21035;-79
2022/04/10 10:05:59;;;;;;;1.90;1.10;;;;;;;3.19;91.83;97102.00;1694309;85;21028;-79
2022/04/10 10:08:28;;;;;;;1.07;0.98;;;;;;;3.21;92.63;97099.79;1694304;85;20980;-78
2022/04/10 10:10:56;;;;;;;1.32;0.95;;;;;;;3.28;92.67;97107.11;1696032;83;21105;-78
2022/04/10 10:13:28;;;;;;;1.27;0.82;;;;;;;3.24;92.43;97097.10;1724600;83;20992;-78
2022/04/10 10:15:53;;;;;;;1.00;0.80;;;;;;;3.27;92.26;97097.07;1723752;83;21012;-78
2022/04/10 10:18:23;;;;;;;1.20;1.00;;;;;;;3.23;92.27;97094.50;1724709;82;21445;-78
2022/04/10 10:20:50;;;;;;;1.25;0.88;;;;;;;3.13;90.51;97095.97;1724414;83;21043;-78
2022/04/10 10:23:21;;;;;;;1.17;0.95;;;;;;;3.14;91.69;97091.58;1723539;83;20988;-79
2022/04/10 10:26:10;;;;;;;0.75;0.75;;;;;;;3.22;92.71;97091.47;1712262;83;21565;-79
2022/04/10 10:29:10;;;;;;;1.15;1.05;;;;;;;3.25;92.30;97079.65;1662135;85;21008;-79
2022/04/10 10:31:48;;;;;;;1.90;0.90;;;;;;;3.25;91.19;97088.38;1693709;85;21460;-79
2022/04/10 10:34:17;;;;;;;1.20;0.90;;;;;;;3.17;90.90;97091.09;1714299;83;21068;-79
2022/04/10 10:36:45;;;;;;;1.00;0.80;;;;;;;2.97;89.31;97084.84;1724659;83;21039;-79
2022/04/10 10:39:11;;;;;;;1.35;0.95;;;;;;;3.01;90.63;97081.73;1724322;82;21003;-79
2022/04/10 10:41:38;;;;;;;1.72;1.10;;;;;;;3.01;91.16;97080.42;1724276;83;21024;-79
2022/04/10 10:44:29;;;;;;;2.50;1.27;;;;;;;3.04;91.07;97086.48;1724535;83;20969;-79
2022/04/10 10:47:02;;;;;;;1.85;1.17;;;;;;;3.15;92.05;97084.14;1713651;83;21052;-79
2022/04/10 10:49:31;;;;;;;1.62;1.20;;;;;;;3.37;92.09;97083.84;1723748;83;21039;-78
2022/04/10 10:52:01;;;;;;;1.30;1.10;;;;;;;3.46;92.13;97090.68;1731769;81;21051;-77
2022/04/10 10:54:45;;;;;;;2.45;1.62;;;;;;;3.53;91.93;97086.62;1740605;81;21003;-78
2022/04/10 10:57:28;;;;;;;7.78;4.67;;;;;;;3.53;91.27;97090.55;1738754;82;21062;-79
2022/04/10 11:00:17;;;;;;;4.30;2.92;;;;;;;3.52;91.46;97096.69;1709302;84;21524;-79
2022/04/10 11:02:54;;;;;;;1.52;1.02;;;;;;;3.54;91.48;97093.59;1708830;84;21035;-79
2022/04/10 11:05:34;;;;;;;1.70;1.20;;;;;;;3.46;90.21;97097.23;1709287;84;20992;-79
2022/04/10 11:08:12;;;;;;;2.15;1.50;;;;;;;3.38;90.30;97093.42;1711748;82;21004;-79
2022/04/10 11:11:02;;;;;;;2.20;1.12;;;;;;;3.28;91.32;97100.10;1709663;84;21070;-79
2022/04/10 11:13:42;;;;;;;2.58;1.10;;;;;;;3.26;90.97;97103.20;1710101;84;21008;-79
2022/04/10 11:16:12;;;;;;;1.92;1.42;;;;;;;3.24;90.12;97109.35;1709729;84;21130;-79
2022/04/10 11:18:44;;;;;;;3.50;3.20;;;;;;;3.21;90.64;97115.50;1709479;84;21067;-79
2022/04/10 11:21:15;;;;;;;2.10;1.90;;;;;;;3.23;91.03;97112.40;1734643;82;21063;-79
2022/04/10 11:23:45;;;;;;;1.80;1.20;;;;;;;3.31;91.38;97118.83;1740828;82;21460;-79
2022/04/10 11:26:18;;;;;;;1.50;1.20;;;;;;;3.37;90.78;97112.19;1740635;82;21019;-79
2022/04/10 11:29:07;;;;;;;2.20;1.12;;;;;;;3.40;90.84;97116.52;1738419;82;21015;-78
2022/04/10 11:31:46;;;;;;;1.10;1.00;;;;;;;3.45;90.60;97122.58;1740424;82;21059;-79
2022/04/10 11:34:30;;;;;;;1.40;1.20;;;;;;;3.42;89.84;97123.48;1740805;82;21350;-79
2022/04/10 11:36:57;;;;;;;1.02;0.93;;;;;;;3.50;90.70;97128.61;1739485;82;21034;-79
2022/04/10 11:39:34;;;;;;;0.95;0.80;;;;;;;3.53;90.36;97128.55;1711820;82;21031;-79
2022/04/10 11:42:07;;;;;;;1.10;0.90;;;;;;;3.51;89.13;97119.86;1709554;84;21493;-79
2022/04/10 11:44:35;;;;;;;1.20;0.98;;;;;;;3.57;90.25;97126.73;1709886;84;20980;-79
2022/04/10 11:47:09;;;;;;;2.90;1.60;;;;;;;3.61;90.09;97111.86;1709155;84;21019;-79
2022/04/10 11:49:36;;;;;;;1.57;1.40;;;;;;;3.65;90.81;97116.16;1711302;82;21051;-79
2022/04/10 11:52:04;;;;;;;2.52;2.12;;;;;;;3.69;90.65;97112.14;1703797;84;21047;-79
2022/04/10 11:54:37;;;;;;;1.30;1.15;;;;;;;3.74;90.57;97112.52;1710467;83;21008;-78
2022/04/10 11:57:07;;;;;;;1.40;1.20;;;;;;;3.73;88.30;97114.73;1724521;83;21035;-79
2022/04/10 11:59:38;;;;;;;2.08;1.20;;;;;;;3.62;86.60;97123.62;1723552;80;21005;-78